Terminal Aerodrome Forecast
Issued by NWS

Home | Current Version | Previous Version | Text Only | Print | Product List | Glossary On
Versions: 1 2 3 4 5 6 7 8 9 10 11 12 13 14 15 16 17 18 19 20
000
FTUS46 KMTR 202100 AAB
TAFOAK
TAF AMD
KOAK 202122Z 2021/2124 17004KT P6SM VCSH SCT009 BKN060 OVC090
      TEMPO 2023/2103 SCT007 BKN025 OVC040
     FM210300 20005KT 5SM -SHRA BR SCT010 BKN035 OVC045
     FM210600 20004KT P6SM BKN015 OVC020
     FM211800 23006KT P6SM BKN020=

USA.gov is the U.S. government's official web portal to all federal, state and local government web resources and services.